sensor_id;sensor_type;location;lat;lon;timestamp;pressure;altitude;pressure_sealevel;temperature;humidity
48872;BME280;36154;51.674;7.824;2023-04-16T00:02:02;101068.34;;;20.15;47.33
48872;BME280;36154;51.674;7.824;2023-04-16T00:04:27;101076.06;;;20.17;47.38
48872;BME280;36154;51.674;7.824;2023-04-16T00:06:53;101073.47;;;20.17;47.41
48872;BME280;36154;51.674;7.824;2023-04-16T00:09:18;101078.66;;;20.17;47.50
48872;BME280;36154;51.674;7.824;2023-04-16T00:11:44;101077.78;;;20.16;47.44
48872;BME280;36154;51.674;7.824;2023-04-16T00:14:09;101077.78;;;20.16;47.45
48872;BME280;36154;51.674;7.824;2023-04-16T00:16:35;101085.50;;;20.18;47.50
48872;BME280;36154;51.674;7.824;2023-04-16T00:19:00;101079.50;;;20.17;47.33
48872;BME280;36154;51.674;7.824;2023-04-16T00:21:26;101072.59;;;20.16;47.37
48872;BME280;36154;51.674;7.824;2023-04-16T00:23:51;101077.78;;;20.16;47.49
48872;BME280;36154;51.674;7.824;2023-04-16T00:26:16;101063.97;;;20.17;47.55
48872;BME280;36154;51.674;7.824;2023-04-16T00:28:42;101064.84;;;20.16;47.42
48872;BME280;36154;51.674;7.824;2023-04-16T00:31:07;101067.44;;;20.16;47.57
48872;BME280;36154;51.674;7.824;2023-04-16T00:33:32;101068.34;;;20.15;47.52
48872;BME280;36154;51.674;7.824;2023-04-16T00:35:58;101069.19;;;20.16;47.27
48872;BME280;36154;51.674;7.824;2023-04-16T00:38:23;101064.84;;;20.16;47.29
48872;BME280;36154;51.674;7.824;2023-04-16T00:40:48;101069.19;;;20.16;47.49
48872;BME280;36154;51.674;7.824;2023-04-16T00:43:24;101065.75;;;20.15;47.37
48872;BME280;36154;51.674;7.824;2023-04-16T00:45:51;101055.41;;;20.15;47.35
48872;BME280;36154;51.674;7.824;2023-04-16T00:48:19;101060.56;;;20.15;47.43
48872;BME280;36154;51.674;7.824;2023-04-16T00:50:45;101067.44;;;20.16;47.41
48872;BME280;36154;51.674;7.824;2023-04-16T00:53:10;101062.25;;;20.16;47.42
48872;BME280;36154;51.674;7.824;2023-04-16T00:55:36;101059.66;;;20.16;47.29
48872;BME280;36154;51.674;7.824;2023-04-16T00:58:02;101065.75;;;20.15;47.49
48872;BME280;36154;51.674;7.824;2023-04-16T01:00:27;101073.50;;;20.15;47.42
48872;BME280;36154;51.674;7.824;2023-04-16T01:02:53;101086.44;;;20.15;47.40
48872;BME280;36154;51.674;7.824;2023-04-16T01:05:19;101089.88;;;20.16;47.43
48872;BME280;36154;51.674;7.824;2023-04-16T01:07:44;101090.75;;;20.15;47.46
48872;BME280;36154;51.674;7.824;2023-04-16T01:10:10;101092.47;;;20.16;47.26
48872;BME280;36154;51.674;7.824;2023-04-16T01:12:35;101093.31;;;20.15;47.48
48872;BME280;36154;51.674;7.824;2023-04-16T01:15:00;101092.47;;;20.16;47.28
48872;BME280;36154;51.674;7.824;2023-04-16T01:17:26;101097.63;;;20.16;47.43
48872;BME280;36154;51.674;7.824;2023-04-16T01:19:51;101096.78;;;20.15;47.37
48872;BME280;36154;51.674;7.824;2023-04-16T01:22:16;101105.38;;;20.16;47.42
48872;BME280;36154;51.674;7.824;2023-04-16T01:24:42;101100.25;;;20.14;47.44
48872;BME280;36154;51.674;7.824;2023-04-16T01:27:07;101095.06;;;20.14;47.39
48872;BME280;36154;51.674;7.824;2023-04-16T01:29:32;101095.06;;;20.14;47.48
48872;BME280;36154;51.674;7.824;2023-04-16T01:31:57;101101.97;;;20.15;47.33
48872;BME280;36154;51.674;7.824;2023-04-16T01:34:23;101100.25;;;20.14;47.39
48872;BME280;36154;51.674;7.824;2023-04-16T01:36:48;101099.41;;;20.13;47.32
48872;BME280;36154;51.674;7.824;2023-04-16T01:39:14;101098.53;;;20.13;47.27
48872;BME280;36154;51.674;7.824;2023-04-16T01:41:40;101101.13;;;20.13;47.41
48872;BME280;36154;51.674;7.824;2023-04-16T01:44:06;101099.41;;;20.13;47.46
48872;BME280;36154;51.674;7.824;2023-04-16T01:46:32;101095.06;;;20.14;47.28
48872;BME280;36154;51.674;7.824;2023-04-16T01:48:58;101105.41;;;20.14;47.45
48872;BME280;36154;51.674;7.824;2023-04-16T01:51:23;101099.41;;;20.13;47.35
48872;BME280;36154;51.674;7.824;2023-04-16T01:53:49;101108.00;;;20.14;47.31
48872;BME280;36154;51.674;7.824;2023-04-16T01:56:15;101108.88;;;20.13;47.39
48872;BME280;36154;51.674;7.824;2023-04-16T01:58:42;101114.06;;;20.13;47.23
48872;BME280;36154;51.674;7.824;2023-04-16T02:01:08;101109.75;;;20.13;47.30
48872;BME280;36154;51.674;7.824;2023-04-16T02:03:34;101113.19;;;20.14;47.38
48872;BME280;36154;51.674;7.824;2023-04-16T02:05:59;101112.38;;;20.12;47.17
48872;BME280;36154;51.674;7.824;2023-04-16T02:08:26;101115.78;;;20.14;47.87
48872;BME280;36154;51.674;7.824;2023-04-16T02:10:51;101111.47;;;20.13;47.43
48872;BME280;36154;51.674;7.824;2023-04-16T02:13:17;101114.94;;;20.13;47.32
48872;BME280;36154;51.674;7.824;2023-04-16T02:15:47;101101.13;;;20.13;47.41
48872;BME280;36154;51.674;7.824;2023-04-16T02:18:13;101106.28;;;20.13;47.41
48872;BME280;36154;51.674;7.824;2023-04-16T02:20:42;101102.03;;;20.12;47.33
48872;BME280;36154;51.674;7.824;2023-04-16T02:23:08;101107.19;;;20.12;47.31
48872;BME280;36154;51.674;7.824;2023-04-16T02:25:38;101114.06;;;20.13;47.36
48872;BME280;36154;51.674;7.824;2023-04-16T02:28:08;101107.19;;;20.12;47.28
48872;BME280;36154;51.674;7.824;2023-04-16T02:30:35;101099.44;;;20.12;47.40
48872;BME280;36154;51.674;7.824;2023-04-16T02:33:00;101107.19;;;20.12;47.44
48872;BME280;36154;51.674;7.824;2023-04-16T02:35:28;101102.03;;;20.12;47.37
48872;BME280;36154;51.674;7.824;2023-04-16T02:37:53;101102.84;;;20.12;47.29
48872;BME280;36154;51.674;7.824;2023-04-16T02:40:18;101107.19;;;20.12;47.38
48872;BME280;36154;51.674;7.824;2023-04-16T02:42:43;101109.78;;;20.12;47.39
48872;BME280;36154;51.674;7.824;2023-04-16T02:45:09;101107.19;;;20.12;47.48
48872;BME280;36154;51.674;7.824;2023-04-16T02:47:35;101104.59;;;20.12;47.44
48872;BME280;36154;51.674;7.824;2023-04-16T02:50:00;101107.19;;;20.12;47.38
48872;BME280;36154;51.674;7.824;2023-04-16T02:52:26;101100.31;;;20.11;47.29
48872;BME280;36154;51.674;7.824;2023-04-16T02:54:51;101114.94;;;20.12;47.21
48872;BME280;36154;51.674;7.824;2023-04-16T02:57:16;101105.47;;;20.11;47.25
48872;BME280;36154;51.674;7.824;2023-04-16T02:59:41;101111.50;;;20.11;47.33
48872;BME280;36154;51.674;7.824;2023-04-16T03:02:07;101106.38;;;20.10;47.33
48872;BME280;36154;51.674;7.824;2023-04-16T03:04:32;101116.66;;;20.11;47.31
48872;BME280;36154;51.674;7.824;2023-04-16T03:06:57;101117.53;;;20.12;47.43
48872;BME280;36154;51.674;7.824;2023-04-16T03:09:23;101119.22;;;20.13;47.27
48872;BME280;36154;51.674;7.824;2023-04-16T03:11:48;101118.41;;;20.11;47.79
48872;BME280;36154;51.674;7.824;2023-04-16T03:14:13;101119.25;;;20.11;47.30
48872;BME280;36154;51.674;7.824;2023-04-16T03:16:38;101126.16;;;20.11;47.50
48872;BME280;36154;51.674;7.824;2023-04-16T03:19:04;101121.00;;;20.11;47.44
48872;BME280;36154;51.674;7.824;2023-04-16T03:21:32;101116.72;;;20.10;47.30
48872;BME280;36154;51.674;7.824;2023-04-16T03:23:57;101119.31;;;20.10;47.30
48872;BME280;36154;51.674;7.824;2023-04-16T03:26:23;101121.91;;;20.10;47.39
48872;BME280;36154;51.674;7.824;2023-04-16T03:28:48;101116.72;;;20.10;47.33
48872;BME280;36154;51.674;7.824;2023-04-16T03:31:13;101124.47;;;20.10;47.34
48872;BME280;36154;51.674;7.824;2023-04-16T03:33:38;101123.59;;;20.09;47.38
48872;BME280;36154;51.674;7.824;2023-04-16T03:36:04;101122.75;;;20.09;47.26
48872;BME280;36154;51.674;7.824;2023-04-16T03:38:29;101122.75;;;20.09;47.34
48872;BME280;36154;51.674;7.824;2023-04-16T03:40:54;101131.41;;;20.08;47.25
48872;BME280;36154;51.674;7.824;2023-04-16T03:43:20;101133.13;;;20.09;47.39
48872;BME280;36154;51.674;7.824;2023-04-16T03:45:46;101133.13;;;20.09;47.37
48872;BME280;36154;51.674;7.824;2023-04-16T03:48:11;101137.44;;;20.08;47.31
48872;BME280;36154;51.674;7.824;2023-04-16T03:50:36;101132.25;;;20.10;47.37
48872;BME280;36154;51.674;7.824;2023-04-16T03:53:02;101122.81;;;20.06;47.28
48872;BME280;36154;51.674;7.824;2023-04-16T03:55:27;101128.81;;;20.08;47.23
48872;BME280;36154;51.674;7.824;2023-04-16T03:57:52;101135.69;;;20.09;47.32
48872;BME280;36154;51.674;7.824;2023-04-16T04:00:18;101145.19;;;20.10;47.36
48872;BME280;36154;51.674;7.824;2023-04-16T04:02:43;101136.56;;;20.08;47.34
48872;BME280;36154;51.674;7.824;2023-04-16T04:05:08;101136.56;;;20.08;47.33
48872;BME280;36154;51.674;7.824;2023-04-16T04:07:34;101135.72;;;20.07;47.43
48872;BME280;36154;51.674;7.824;2023-04-16T04:09:59;101134.00;;;20.06;47.37
48872;BME280;36154;51.674;7.824;2023-04-16T04:12:24;101136.59;;;20.06;47.34
48872;BME280;36154;51.674;7.824;2023-04-16T04:14:50;101134.00;;;20.06;47.47
48872;BME280;36154;51.674;7.824;2023-04-16T04:17:15;101134.06;;;20.05;47.40
48872;BME280;36154;51.674;7.824;2023-04-16T04:19:40;101134.91;;;20.05;47.67
48872;BME280;36154;51.674;7.824;2023-04-16T04:22:06;101139.25;;;20.05;47.50
48872;BME280;36154;51.674;7.824;2023-04-16T04:24:31;101144.41;;;20.05;47.35
48872;BME280;36154;51.674;7.824;2023-04-16T04:26:56;101140.09;;;20.05;47.43
48872;BME280;36154;51.674;7.824;2023-04-16T04:29:22;101146.13;;;20.04;47.34
48872;BME280;36154;51.674;7.824;2023-04-16T04:31:47;101151.31;;;20.04;47.38
48872;BME280;36154;51.674;7.824;2023-04-16T04:34:12;101153.03;;;20.04;47.40
48872;BME280;36154;51.674;7.824;2023-04-16T04:36:38;101147.88;;;20.04;47.31
48872;BME280;36154;51.674;7.824;2023-04-16T04:39:03;101156.47;;;20.04;47.44
48872;BME280;36154;51.674;7.824;2023-04-16T04:41:28;101158.22;;;20.04;47.23
48872;BME280;36154;51.674;7.824;2023-04-16T04:43:54;101160.81;;;20.04;47.31
48872;BME280;36154;51.674;7.824;2023-04-16T04:46:19;101164.22;;;20.04;47.53
48872;BME280;36154;51.674;7.824;2023-04-16T04:48:44;101163.38;;;20.04;47.45
48872;BME280;36154;51.674;7.824;2023-04-16T04:51:09;101172.00;;;20.04;47.43
48872;BME280;36154;51.674;7.824;2023-04-16T04:53:35;101173.75;;;20.04;47.44
48872;BME280;36154;51.674;7.824;2023-04-16T04:56:00;101183.22;;;20.05;47.43
48872;BME280;36154;51.674;7.824;2023-04-16T04:58:25;101177.16;;;20.04;47.27
48872;BME280;36154;51.674;7.824;2023-04-16T05:00:51;101184.94;;;20.04;47.45
48872;BME280;36154;51.674;7.824;2023-04-16T05:03:19;101176.31;;;20.04;47.48
48872;BME280;36154;51.674;7.824;2023-04-16T05:05:47;101174.59;;;20.03;47.34
48872;BME280;36154;51.674;7.824;2023-04-16T05:08:13;101181.50;;;20.04;47.28
48872;BME280;36154;51.674;7.824;2023-04-16T05:10:38;101180.66;;;20.03;47.33
48872;BME280;36154;51.674;7.824;2023-04-16T05:13:03;101182.38;;;20.03;47.30
48872;BME280;36154;51.674;7.824;2023-04-16T05:15:28;101191.84;;;20.04;47.43
48872;BME280;36154;51.674;7.824;2023-04-16T05:17:54;101191.00;;;20.03;47.43
48872;BME280;36154;51.674;7.824;2023-04-16T05:20:22;101191.84;;;20.04;47.29
48872;BME280;36154;51.674;7.824;2023-04-16T05:22:49;101184.94;;;20.03;47.31
48872;BME280;36154;51.674;7.824;2023-04-16T05:25:14;101201.34;;;20.03;47.28
48872;BME280;36154;51.674;7.824;2023-04-16T05:27:41;101197.03;;;20.04;47.57
48872;BME280;36154;51.674;7.824;2023-04-16T05:30:07;101194.44;;;20.02;47.35
48872;BME280;36154;51.674;7.824;2023-04-16T05:32:32;101200.47;;;20.03;47.29
48872;BME280;36154;51.674;7.824;2023-04-16T05:34:57;101198.75;;;20.03;47.22
48872;BME280;36154;51.674;7.824;2023-04-16T05:37:22;101205.63;;;20.04;47.42
48872;BME280;36154;51.674;7.824;2023-04-16T05:39:48;101211.69;;;20.03;47.19
48872;BME280;36154;51.674;7.824;2023-04-16T05:42:13;101215.13;;;20.04;47.50
48872;BME280;36154;51.674;7.824;2023-04-16T05:44:39;101216.88;;;20.03;47.31
48872;BME280;36154;51.674;7.824;2023-04-16T05:47:04;101216.00;;;20.03;47.05
48872;BME280;36154;51.674;7.824;2023-04-16T05:49:31;101223.75;;;20.03;47.45
48872;BME280;36154;51.674;7.824;2023-04-16T05:51:56;101221.16;;;20.03;47.33
48872;BME280;36154;51.674;7.824;2023-04-16T05:54:21;101218.56;;;20.03;47.23
48872;BME280;36154;51.674;7.824;2023-04-16T05:56:47;101224.66;;;20.02;47.35
48872;BME280;36154;51.674;7.824;2023-04-16T05:59:12;101233.22;;;20.04;47.33
48872;BME280;36154;51.674;7.824;2023-04-16T06:01:37;101223.75;;;20.03;47.37
48872;BME280;36154;51.674;7.824;2023-04-16T06:04:03;101236.69;;;20.03;47.41
48872;BME280;36154;51.674;7.824;2023-04-16T06:06:28;101234.97;;;20.03;47.25
48872;BME280;36154;51.674;7.824;2023-04-16T06:08:53;101238.44;;;20.01;47.31
48872;BME280;36154;51.674;7.824;2023-04-16T06:11:19;101240.16;;;20.02;47.36
48872;BME280;36154;51.674;7.824;2023-04-16T06:13:44;101247.03;;;20.03;47.36
48872;BME280;36154;51.674;7.824;2023-04-16T06:16:09;101247.03;;;20.03;47.19
48872;BME280;36154;51.674;7.824;2023-04-16T06:18:35;101247.03;;;20.03;47.37
48872;BME280;36154;51.674;7.824;2023-04-16T06:21:00;101256.53;;;20.02;47.00
48872;BME280;36154;51.674;7.824;2023-04-16T06:23:26;101257.38;;;20.03;47.35
48872;BME280;36154;51.674;7.824;2023-04-16T06:25:51;101259.09;;;20.04;47.34
48872;BME280;36154;51.674;7.824;2023-04-16T06:28:16;101256.53;;;20.02;47.39
48872;BME280;36154;51.674;7.824;2023-04-16T06:30:41;101266.03;;;20.02;47.35
48872;BME280;36154;51.674;7.824;2023-04-16T06:33:07;101269.47;;;20.02;47.24
48872;BME280;36154;51.674;7.824;2023-04-16T06:35:32;101272.91;;;20.03;47.42
48872;BME280;36154;51.674;7.824;2023-04-16T06:37:57;101266.03;;;20.02;47.47
48872;BME280;36154;51.674;7.824;2023-04-16T06:40:23;101272.06;;;20.02;47.43
48872;BME280;36154;51.674;7.824;2023-04-16T06:42:48;101266.03;;;20.02;47.12
48872;BME280;36154;51.674;7.824;2023-04-16T06:45:13;101272.91;;;20.03;47.25
48872;BME280;36154;51.674;7.824;2023-04-16T06:47:39;101271.22;;;20.02;47.27
48872;BME280;36154;51.674;7.824;2023-04-16T06:50:05;101281.56;;;20.02;47.25
48872;BME280;36154;51.674;7.824;2023-04-16T06:52:30;101272.91;;;20.03;47.35
48872;BME280;36154;51.674;7.824;2023-04-16T06:54:55;101279.84;;;20.01;47.32
48872;BME280;36154;51.674;7.824;2023-04-16T06:57:21;101280.66;;;20.03;47.30
48872;BME280;36154;51.674;7.824;2023-04-16T06:59:46;101283.25;;;20.03;47.42
48872;BME280;36154;51.674;7.824;2023-04-16T07:02:11;101279.81;;;20.02;47.29
48872;BME280;36154;51.674;7.824;2023-04-16T07:04:37;101287.56;;;20.02;47.31
48872;BME280;36154;51.674;7.824;2023-04-16T07:07:02;101291.91;;;20.02;47.31
48872;BME280;36154;51.674;7.824;2023-04-16T07:09:27;101292.75;;;20.02;47.23
48872;BME280;36154;51.674;7.824;2023-04-16T07:11:53;101300.50;;;20.02;47.27
48872;BME280;36154;51.674;7.824;2023-04-16T07:14:18;101298.75;;;20.03;47.42
48872;BME280;36154;51.674;7.824;2023-04-16T07:16:43;101297.06;;;20.02;47.25
48872;BME280;36154;51.674;7.824;2023-04-16T07:19:09;101297.91;;;20.02;47.17
48872;BME280;36154;51.674;7.824;2023-04-16T07:21:34;101303.94;;;20.03;47.18
48872;BME280;36154;51.674;7.824;2023-04-16T07:24:00;101302.25;;;20.02;47.28
48872;BME280;36154;51.674;7.824;2023-04-16T07:26:25;101312.59;;;20.02;47.25
48872;BME280;36154;51.674;7.824;2023-04-16T07:28:50;101309.09;;;20.03;47.20
48872;BME280;36154;51.674;7.824;2023-04-16T07:31:16;101304.84;;;20.02;47.30
48872;BME280;36154;51.674;7.824;2023-04-16T07:33:41;101302.25;;;20.02;47.31
48872;BME280;36154;51.674;7.824;2023-04-16T07:36:06;101308.28;;;20.02;47.17
48872;BME280;36154;51.674;7.824;2023-04-16T07:38:32;101308.31;;;19.99;47.33
48872;BME280;36154;51.674;7.824;2023-04-16T07:40:59;101312.59;;;20.02;47.10
48872;BME280;36154;51.674;7.824;2023-04-16T07:43:24;101316.88;;;20.01;46.97
48872;BME280;36154;51.674;7.824;2023-04-16T07:45:50;101316.88;;;20.01;47.13
48872;BME280;36154;51.674;7.824;2023-04-16T07:48:16;101316.88;;;20.01;47.32
48872;BME280;36154;51.674;7.824;2023-04-16T07:50:41;101326.38;;;20.02;47.37
48872;BME280;36154;51.674;7.824;2023-04-16T07:53:08;101324.63;;;20.03;47.39
48872;BME280;36154;51.674;7.824;2023-04-16T07:55:33;101326.38;;;20.02;47.11
48872;BME280;36154;51.674;7.824;2023-04-16T07:57:58;101323.78;;;20.02;47.24
48872;BME280;36154;51.674;7.824;2023-04-16T08:00:24;101327.22;;;20.03;47.41
48872;BME280;36154;51.674;7.824;2023-04-16T08:02:50;101334.13;;;20.04;47.41
48872;BME280;36154;51.674;7.824;2023-04-16T08:05:15;101341.88;;;20.04;47.40
48872;BME280;36154;51.674;7.824;2023-04-16T08:07:41;101339.28;;;20.04;47.37
48872;BME280;36154;51.674;7.824;2023-04-16T08:10:07;101331.53;;;20.04;47.22
48872;BME280;36154;51.674;7.824;2023-04-16T08:12:32;101345.28;;;20.06;47.31
48872;BME280;36154;51.674;7.824;2023-04-16T08:14:58;101350.44;;;20.07;47.31
48872;BME280;36154;51.674;7.824;2023-04-16T08:17:23;101353.00;;;20.09;47.42
48872;BME280;36154;51.674;7.824;2023-04-16T08:19:48;101347.81;;;20.09;47.50
48872;BME280;36154;51.674;7.824;2023-04-16T08:22:14;101355.56;;;20.10;47.58
48872;BME280;36154;51.674;7.824;2023-04-16T08:24:39;101352.97;;;20.10;47.75
48872;BME280;36154;51.674;7.824;2023-04-16T08:27:05;101353.81;;;20.11;47.74
48872;BME280;36154;51.674;7.824;2023-04-16T08:29:30;101363.28;;;20.13;47.57
48872;BME280;36154;51.674;7.824;2023-04-16T08:31:57;101363.25;;;20.15;47.71
48872;BME280;36154;51.674;7.824;2023-04-16T08:34:25;101364.94;;;20.16;47.88
48872;BME280;36154;51.674;7.824;2023-04-16T08:36:50;101369.25;;;20.17;47.60
48872;BME280;36154;51.674;7.824;2023-04-16T08:39:18;101377.84;;;20.19;47.69
48872;BME280;36154;51.674;7.824;2023-04-16T08:41:45;101372.69;;;20.19;47.87
48872;BME280;36154;51.674;7.824;2023-04-16T08:44:25;101370.91;;;20.21;47.77
48872;BME280;36154;51.674;7.824;2023-04-16T08:46:53;101376.09;;;20.21;47.64
48872;BME280;36154;51.674;7.824;2023-04-16T08:49:23;101382.13;;;20.22;47.69
48872;BME280;36154;51.674;7.824;2023-04-16T08:51:50;101385.56;;;20.22;47.65
48872;BME280;36154;51.674;7.824;2023-04-16T08:54:24;101388.16;;;20.22;47.61
48872;BME280;36154;51.674;7.824;2023-04-16T08:56:57;101384.72;;;20.22;47.59
48872;BME280;36154;51.674;7.824;2023-04-16T08:59:23;101389.88;;;20.23;47.67
48872;BME280;36154;51.674;7.824;2023-04-16T09:01:48;101393.34;;;20.22;47.67
48872;BME280;36154;51.674;7.824;2023-04-16T09:04:16;101395.06;;;20.23;47.69
48872;BME280;36154;51.674;7.824;2023-04-16T09:06:43;101392.50;;;20.22;47.64
48872;BME280;36154;51.674;7.824;2023-04-16T09:09:11;101390.75;;;20.22;47.69
48872;BME280;36154;51.674;7.824;2023-04-16T09:11:37;101393.34;;;20.22;47.53
48872;BME280;36154;51.674;7.824;2023-04-16T09:14:03;101393.34;;;20.22;47.55
48872;BME280;36154;51.674;7.824;2023-04-16T09:16:32;101390.75;;;20.22;47.47
48872;BME280;36154;51.674;7.824;2023-04-16T09:18:58;101393.34;;;20.22;47.35
48872;BME280;36154;51.674;7.824;2023-04-16T09:21:23;101390.75;;;20.22;47.50
48872;BME280;36154;51.674;7.824;2023-04-16T09:23:52;101392.50;;;20.22;47.52
48872;BME280;36154;51.674;7.824;2023-04-16T09:26:17;101399.34;;;20.24;47.58
48872;BME280;36154;51.674;7.824;2023-04-16T09:28:47;101400.22;;;20.23;47.81
48872;BME280;36154;51.674;7.824;2023-04-16T09:31:16;101405.41;;;20.23;48.04
48872;BME280;36154;51.674;7.824;2023-04-16T09:33:43;101403.66;;;20.25;48.20
48872;BME280;36154;51.674;7.824;2023-04-16T09:36:09;101409.69;;;20.24;48.37
48872;BME280;36154;51.674;7.824;2023-04-16T09:38:48;101410.53;;;20.25;48.49
48872;BME280;36154;51.674;7.824;2023-04-16T09:41:14;101408.81;;;20.25;48.74
48872;BME280;36154;51.674;7.824;2023-04-16T09:43:53;101413.94;;;20.28;49.01
48872;BME280;36154;51.674;7.824;2023-04-16T09:46:33;101405.28;;;20.29;48.92
48872;BME280;36154;51.674;7.824;2023-04-16T09:49:09;101419.13;;;20.28;48.92
48872;BME280;36154;51.674;7.824;2023-04-16T09:51:36;101413.94;;;20.28;48.94
48872;BME280;36154;51.674;7.824;2023-04-16T09:54:03;101413.94;;;20.28;48.92
48872;BME280;36154;51.674;7.824;2023-04-16T09:56:29;101417.38;;;20.29;48.82
48872;BME280;36154;51.674;7.824;2023-04-16T09:58:56;101415.63;;;20.29;49.07
48872;BME280;36154;51.674;7.824;2023-04-16T10:01:22;101420.81;;;20.29;49.21
48872;BME280;36154;51.674;7.824;2023-04-16T10:03:48;101419.06;;;20.31;49.22
48872;BME280;36154;51.674;7.824;2023-04-16T10:06:16;101419.06;;;20.31;49.06
48872;BME280;36154;51.674;7.824;2023-04-16T10:08:47;101420.78;;;20.33;49.13
48872;BME280;36154;51.674;7.824;2023-04-16T10:11:12;101424.22;;;20.31;49.06
48872;BME280;36154;51.674;7.824;2023-04-16T10:13:38;101428.53;;;20.33;49.11
48872;BME280;36154;51.674;7.824;2023-04-16T10:16:03;101433.75;;;20.31;48.98
48872;BME280;36154;51.674;7.824;2023-04-16T10:18:29;101432.00;;;20.31;49.12
48872;BME280;36154;51.674;7.824;2023-04-16T10:20:56;101433.75;;;20.31;48.99
48872;BME280;36154;51.674;7.824;2023-04-16T10:23:22;101427.72;;;20.30;48.77
48872;BME280;36154;51.674;7.824;2023-04-16T10:25:51;101427.72;;;20.30;49.11
48872;BME280;36154;51.674;7.824;2023-04-16T10:28:18;101433.75;;;20.29;48.93
48872;BME280;36154;51.674;7.824;2023-04-16T10:30:46;101430.31;;;20.29;49.06
48872;BME280;36154;51.674;7.824;2023-04-16T10:33:22;101429.47;;;20.28;48.93
48872;BME280;36154;51.674;7.824;2023-04-16T10:35:49;101421.72;;;20.28;49.13
48872;BME280;36154;51.674;7.824;2023-04-16T10:38:26;101428.59;;;20.28;48.96
48872;BME280;36154;51.674;7.824;2023-04-16T10:41:02;101426.00;;;20.28;49.04
48872;BME280;36154;51.674;7.824;2023-04-16T10:43:29;101429.47;;;20.28;48.88
48872;BME280;36154;51.674;7.824;2023-04-16T10:45:55;101427.72;;;20.29;49.00
48872;BME280;36154;51.674;7.824;2023-04-16T10:48:23;101427.75;;;20.27;48.85
48872;BME280;36154;51.674;7.824;2023-04-16T10:50:55;101419.16;;;20.25;48.81
48872;BME280;36154;51.674;7.824;2023-04-16T10:53:26;101425.16;;;20.27;48.94
48872;BME280;36154;51.674;7.824;2023-04-16T10:58:30;101434.66;;;20.28;48.94
48872;BME280;36154;51.674;7.824;2023-04-16T11:01:33;101420.84;;;20.26;48.94
48872;BME280;36154;51.674;7.824;2023-04-16T11:03:50;101426.03;;;20.26;48.79
48872;BME280;36154;51.674;7.824;2023-04-16T11:06:23;101417.41;;;20.27;48.98
48872;BME280;36154;51.674;7.824;2023-04-16T11:08:50;101422.56;;;20.27;48.79
48872;BME280;36154;51.674;7.824;2023-04-16T11:11:17;101422.56;;;20.27;48.69
48872;BME280;36154;51.674;7.824;2023-04-16T11:13:43;101415.69;;;20.26;48.92
48872;BME280;36154;51.674;7.824;2023-04-16T11:16:10;101423.44;;;20.26;48.71
48872;BME280;36154;51.674;7.824;2023-04-16T11:18:37;101418.25;;;20.28;48.80
48872;BME280;36154;51.674;7.824;2023-04-16T11:21:10;101421.75;;;20.27;48.80
48872;BME280;36154;51.674;7.824;2023-04-16T11:23:49;101412.22;;;20.27;48.81
48872;BME280;36154;51.674;7.824;2023-04-16T11:26:27;101410.50;;;20.26;48.67
48872;BME280;36154;51.674;7.824;2023-04-16T11:28:55;101421.75;;;20.27;48.67
48872;BME280;36154;51.674;7.824;2023-04-16T11:31:21;101418.25;;;20.28;48.73
48872;BME280;36154;51.674;7.824;2023-04-16T11:33:47;101413.97;;;20.27;48.66
48872;BME280;36154;51.674;7.824;2023-04-16T11:36:13;101421.72;;;20.28;48.66
48872;BME280;36154;51.674;7.824;2023-04-16T11:38:38;101419.13;;;20.28;48.73
48872;BME280;36154;51.674;7.824;2023-04-16T11:41:05;101416.56;;;20.27;48.71
48872;BME280;36154;51.674;7.824;2023-04-16T11:43:31;101421.75;;;20.27;48.55
48872;BME280;36154;51.674;7.824;2023-04-16T11:46:02;101428.63;;;20.26;48.58
48872;BME280;36154;51.674;7.824;2023-04-16T11:51:14;101432.94;;;20.27;48.47
48872;BME280;36154;51.674;7.824;2023-04-16T11:53:46;101431.19;;;20.28;48.56
48872;BME280;36154;51.674;7.824;2023-04-16T11:56:13;101427.75;;;20.27;48.54
48872;BME280;36154;51.674;7.824;2023-04-16T11:58:38;101426.03;;;20.26;48.38
48872;BME280;36154;51.674;7.824;2023-04-16T12:01:06;101434.66;;;20.28;48.61
48872;BME280;36154;51.674;7.824;2023-04-16T12:03:41;101423.44;;;20.28;48.57
48872;BME280;36154;51.674;7.824;2023-04-16T12:06:10;101432.94;;;20.27;48.49
48872;BME280;36154;51.674;7.824;2023-04-16T12:08:35;101428.59;;;20.28;48.65
48872;BME280;36154;51.674;7.824;2023-04-16T12:11:03;101437.25;;;20.28;48.54
48872;BME280;36154;51.674;7.824;2023-04-16T12:13:28;101438.09;;;20.27;48.43
48872;BME280;36154;51.674;7.824;2023-04-16T12:15:55;101432.94;;;20.27;48.47
48872;BME280;36154;51.674;7.824;2023-04-16T12:18:24;101439.81;;;20.28;48.55
48872;BME280;36154;51.674;7.824;2023-04-16T12:20:51;101435.50;;;20.29;48.52
48872;BME280;36154;51.674;7.824;2023-04-16T12:23:28;101438.09;;;20.27;48.56
48872;BME280;36154;51.674;7.824;2023-04-16T12:25:55;101434.66;;;20.28;48.46
48872;BME280;36154;51.674;7.824;2023-04-16T12:28:31;101441.53;;;20.29;48.72
48872;BME280;36154;51.674;7.824;2023-04-16T12:30:57;101448.47;;;20.27;48.53
48872;BME280;36154;51.674;7.824;2023-04-16T12:33:23;101442.41;;;20.30;48.44
48872;BME280;36154;51.674;7.824;2023-04-16T12:35:50;101448.44;;;20.29;48.41
48872;BME280;36154;51.674;7.824;2023-04-16T12:38:16;101457.06;;;20.28;47.86
48872;BME280;36154;51.674;7.824;2023-04-16T12:40:42;101448.53;;;20.21;46.58
48872;BME280;36154;51.674;7.824;2023-04-16T12:43:08;101446.06;;;20.13;45.24
48872;BME280;36154;51.674;7.824;2023-04-16T12:45:34;101449.59;;;20.08;44.65
48872;BME280;36154;51.674;7.824;2023-04-16T12:47:59;101452.31;;;19.99;44.26
48872;BME280;36154;51.674;7.824;2023-04-16T12:50:24;101450.63;;;19.94;43.54
48872;BME280;36154;51.674;7.824;2023-04-16T12:52:50;101448.97;;;19.90;43.20